Sumter, SC

8:11 AM EDT on August 30, 2015 (GMT -0400)
USC Sumter | | Change Station
CLOSE
Current Station
Personal Weather Station
Location: Sumter, SC
Elevation: 165 ft
Nearby Weather Stations

Elev 165 ft 33.93 °N, 80.37 °W | Updated 3 minutes ago

Partly Cloudy
Partly Cloudy
69.4 °F
Feels Like 69.4 °F
N
0.0
Wind Variable Wind from SSW
Gusts 3.0 mph

Today
High -- | Low -- °F
--% Chance of Precip.
Yesterday
High -- | Low -- °F
Precip. -- in
6:53 AM 7:49 PM
Full, 99% visible
Pressure 30.11 in
Visibility 10.0 miles
Clouds Scattered Clouds 3900 ft
Dew Point 62 °F
Humidity 76%
Rainfall Not available.
Snow Depth Not available.
UV 0.0 out of 12
Pollen 2.20 out of 12
Air Quality Not available.
Flu Activity Not available.
METAR KSSC 301158Z AUTO 03004KT 10SM SCT039 21/17 A3011 RMK AO2 SLP196 T02110165 10211 20195 50007 $
Pressure 30.11 in
Visibility 10.0 miles
Clouds Scattered Clouds 3900 ft
Dew Point 62 °F
Humidity 76%
Rainfall Not available.
Snow Depth Not available.
UV 0.0 out of 12
Pollen 2.20 out of 12
Air Quality Not available.
Flu Activity Not available.
METAR KSSC 301158Z AUTO 03004KT 10SM SCT039 21/17 A3011 RMK AO2 SLP196 T02110165 10211 20195 50007 $

10-Day Weather Forecast

×

Almanac

Astronomy

Aug. 30, 2015 Rise Set
Actual Time
Civil Twilight
Nautical Twilight
Astronomical Twilight
Moon
Length of Visible Light
Length of Day
Tomorrow will be .
, % of the Moon is Illuminated

Today's Extremes

State Highs State Lows

Community

WunderPhotos

Upload Photos

1,850,936 photos uploaded!

WunderBlogs® & News

Nearby

Air Quality

  Air Quality AQ Index Pollutant
Not available.

Snow Depth

Station Depth Elevation

Earthquake Activity

City Distance Mag. Time & Date
Minimum magnitude displayed is 2.5.

Coastal Water Temperatures

Place Temperature

Stations

Nearby Weather Stations

Station Location Temp. Windchill Dew Point Humidity Wind Precip. Elev Updated Type